Time;durP1;ratioP1;P1;durP2;ratioP2;P2;SDS_P1;SDS_P2;PMS_P1;PMS_P2;Temp;Humidity;BMP_temperature;BMP_pressure;BME280_temperature;BME280_humidity;BME280_pressure;Samples;Min_cycle;Max_cycle;Signal;HPM_P1;HPM_P2
2023/06/07 00:00:31;;;;;;;;;19.67;18.00;;;;;21.39;58.95;100913.28;6138781;23;46884;-84
2023/06/07 00:02:59;;;;;;;;;15.00;15.00;;;;;21.36;58.78;100908.81;6164218;23;45504;-83
2023/06/07 00:05:25;;;;;;;;;20.00;17.67;;;;;21.32;58.16;100917.06;6165801;23;45412;-83
2023/06/07 00:07:51;;;;;;;;;17.33;16.00;;;;;21.26;57.95;100906.41;6139474;23;44806;-83
2023/06/07 00:10:17;;;;;;;;;15.00;15.00;;;;;21.18;58.29;100904.78;6163824;23;45151;-83
2023/06/07 00:12:42;;;;;;;;;17.00;14.00;;;;;21.20;57.49;100910.19;6138813;23;45361;-83
2023/06/07 00:15:08;;;;;;;;;16.00;15.00;;;;;21.14;58.96;100896.81;6139636;23;44736;-83
2023/06/07 00:17:37;;;;;;;;;14.00;13.00;;;;;21.20;58.88;100904.75;6137447;23;45404;-83
2023/06/07 00:20:05;;;;;;;;;17.00;17.00;;;;;21.13;59.06;100914.00;6161527;23;47247;-83
2023/06/07 00:22:33;;;;;;;;;18.00;14.67;;;;;21.05;58.82;100910.59;6164970;23;44809;-83
2023/06/07 00:24:59;;;;;;;;;18.33;17.00;;;;;20.97;59.06;100900.88;6165141;23;45283;-82
2023/06/07 00:27:27;;;;;;;;;18.00;14.67;;;;;21.11;58.98;100902.34;6162433;23;45213;-82
2023/06/07 00:29:54;;;;;;;;;19.67;15.67;;;;;21.09;58.85;100909.59;6165652;23;45344;-83
2023/06/07 00:32:19;;;;;;;;;22.67;18.00;;;;;20.97;60.20;100911.69;6172119;23;45328;-83
2023/06/07 00:34:45;;;;;;;;;19.67;17.33;;;;;20.84;60.11;100904.81;6166268;23;45376;-82
2023/06/07 00:37:10;;;;;;;;;18.33;17.33;;;;;20.83;60.51;100910.28;6166774;23;44778;-83
2023/06/07 00:39:35;;;;;;;;;18.33;16.67;;;;;20.74;60.22;100916.78;6190164;23;48292;-83
2023/06/07 00:42:05;;;;;;;;;17.33;16.00;;;;;20.74;60.32;100906.88;6165004;23;45290;-82
2023/06/07 00:44:33;;;;;;;;;16.00;15.67;;;;;20.74;60.05;100908.69;6164600;23;45382;-82
2023/06/07 00:47:00;;;;;;;;;19.33;16.00;;;;;20.70;60.41;100913.28;6166862;23;45336;-84
2023/06/07 00:49:26;;;;;;;;;16.67;15.67;;;;;20.66;60.40;100910.69;6163910;23;47685;-83
2023/06/07 00:51:52;;;;;;;;;20.33;18.33;;;;;20.63;60.40;100905.38;6188061;23;45380;-84
2023/06/07 00:54:17;;;;;;;;;14.00;14.00;;;;;20.64;61.45;100904.44;6165381;23;44729;-84
2023/06/07 00:56:45;;;;;;;;;17.00;16.00;;;;;20.58;60.65;100902.72;6165536;23;44829;-83
2023/06/07 00:59:11;;;;;;;;;21.00;17.00;;;;;20.57;60.83;100904.56;6164993;23;46923;-83
2023/06/07 01:05:02;;;;;;;;;19.67;19.00;;;;;20.42;61.14;100906.72;6167510;23;45356;-83
2023/06/07 01:07:28;;;;;;;;;20.67;17.33;;;;;20.31;61.45;100905.19;6167195;23;45390;-83
2023/06/07 01:09:54;;;;;;;;;16.00;14.33;;;;;20.27;61.79;100902.59;6188300;23;47109;-84
2023/06/07 01:12:20;;;;;;;;;15.67;13.00;;;;;20.09;61.51;100891.28;6163254;23;45380;-83
2023/06/07 01:15:17;;;;;;;;;18.67;18.67;;;;;20.15;61.70;100901.94;6164738;23;45444;-84
2023/06/07 01:17:47;;;;;;;;;18.33;16.00;;;;;20.03;62.49;100895.94;6188947;22;45319;-82
2023/06/07 01:20:19;;;;;;;;;22.67;19.67;;;;;20.07;61.72;100886.84;6164562;23;46298;-83
2023/06/07 01:22:46;;;;;;;;;21.00;17.67;;;;;19.99;62.01;100887.03;6163366;23;45308;-83
2023/06/07 01:25:12;;;;;;;;;18.67;16.33;;;;;19.99;62.40;100892.41;6166246;23;45547;-82
2023/06/07 01:27:40;;;;;;;;;21.67;21.67;;;;;19.97;62.26;100888.88;6164511;23;45553;-83
2023/06/07 01:30:07;;;;;;;;;21.67;18.33;;;;;19.92;62.23;100894.38;6166521;23;45046;-84
2023/06/07 01:32:33;;;;;;;;;20.67;20.00;;;;;19.78;63.48;100889.28;6163333;23;45257;-83
2023/06/07 01:34:59;;;;;;;;;18.33;17.00;;;;;19.71;63.03;100893.06;6167219;23;45347;-83
2023/06/07 01:37:26;;;;;;;;;21.33;18.67;;;;;19.65;63.40;100892.22;6190701;23;45345;-83
2023/06/07 01:39:53;;;;;;;;;21.33;20.00;;;;;19.68;63.31;100890.38;6166676;23;46393;-83
2023/06/07 01:42:20;;;;;;;;;21.33;21.33;;;;;19.66;63.90;100892.22;6166684;23;45743;-83
2023/06/07 01:44:53;;;;;;;;;21.33;19.67;;;;;19.69;63.33;100889.47;6166487;23;45729;-82
2023/06/07 01:47:20;;;;;;;;;20.67;19.00;;;;;19.63;63.42;100886.88;6166517;23;45224;-82
2023/06/07 01:49:45;;;;;;;;;18.67;17.67;;;;;19.62;63.52;100884.22;6166446;23;45925;-83
2023/06/07 01:52:11;;;;;;;;;19.67;18.67;;;;;19.61;63.27;100882.44;6168067;23;44785;-84
2023/06/07 01:54:39;;;;;;;;;24.33;21.33;;;;;19.68;63.34;100884.97;6165956;23;45579;-84
2023/06/07 01:57:21;;;;;;;;;21.67;20.67;;;;;19.74;63.28;100879.47;6164083;23;45279;-84
2023/06/07 02:00:21;;;;;;;;;21.33;20.00;;;;;19.72;63.07;100884.00;6167884;23;45892;-84
2023/06/07 02:02:58;;;;;;;;;21.33;19.00;;;;;19.72;63.30;100881.31;6165127;23;45889;-83
2023/06/07 02:05:38;;;;;;;;;23.67;21.00;;;;;19.73;63.32;100876.78;6187989;22;45823;-82
2023/06/07 02:08:12;;;;;;;;;22.67;20.67;;;;;19.66;63.62;100867.94;6188976;23;45371;-83
2023/06/07 02:10:39;;;;;;;;;21.00;18.67;;;;;19.59;63.59;100877.97;6164841;23;45628;-83
2023/06/07 02:13:06;;;;;;;;;23.00;22.00;;;;;19.52;63.67;100878.13;6189678;23;45400;-83
2023/06/07 02:15:31;;;;;;;;;21.67;21.00;;;;;19.50;63.17;100883.53;6165228;23;45579;-82
2023/06/07 02:18:04;;;;;;;;;24.67;24.67;;;;;19.51;63.49;100862.84;6165870;23;45364;-84
2023/06/07 02:20:33;;;;;;;;;25.00;21.00;;;;;19.50;63.78;100878.16;6163008;23;47169;-85
2023/06/07 02:22:58;;;;;;;;;20.00;18.67;;;;;19.40;63.98;100873.88;6188514;23;45905;-83
2023/06/07 02:25:25;;;;;;;;;22.00;18.00;;;;;19.34;64.25;100861.38;6189731;23;45795;-83
2023/06/07 02:27:51;;;;;;;;;23.33;20.00;;;;;19.27;64.26;100858.84;6190790;23;44825;-84
2023/06/07 02:30:17;;;;;;;;;24.67;20.00;;;;;19.28;64.42;100872.28;6168251;23;46469;-83
2023/06/07 02:32:45;;;;;;;;;18.00;17.67;;;;;19.24;64.05;100864.31;6191005;22;45854;-84
2023/06/07 02:35:11;;;;;;;;;23.00;20.67;;;;;19.27;64.41;100865.13;6167377;23;45304;-83
2023/06/07 02:37:38;;;;;;;;;27.33;21.67;;;;;19.29;64.33;100865.09;6167522;23;45524;-82
2023/06/07 02:40:09;;;;;;;;;23.00;21.67;;;;;19.30;64.55;100866.88;6167807;23;45493;-84
2023/06/07 02:42:36;;;;;;;;;21.67;19.00;;;;;19.27;64.55;100873.22;6166124;23;44789;-84
2023/06/07 02:45:03;;;;;;;;;22.00;20.67;;;;;19.15;64.56;100860.00;6163872;23;45346;-83
2023/06/07 02:47:31;;;;;;;;;19.00;18.00;;;;;19.20;64.65;100876.94;6164305;23;45490;-83
2023/06/07 02:49:57;;;;;;;;;20.33;19.00;;;;;19.12;64.35;100870.81;6188150;23;47148;-83
2023/06/07 02:52:23;;;;;;;;;21.00;18.67;;;;;19.08;64.72;100867.28;6165213;23;45363;-84
2023/06/07 02:54:48;;;;;;;;;20.67;20.00;;;;;19.10;64.93;100872.66;6186605;23;45396;-82
2023/06/07 02:57:17;;;;;;;;;21.00;18.00;;;;;19.11;64.93;100858.28;6184419;23;45247;-83
2023/06/07 02:59:44;;;;;;;;;21.33;19.33;;;;;19.03;64.98;100861.13;6161508;23;45858;-83
2023/06/07 03:02:10;;;;;;;;;18.00;17.67;;;;;18.99;66.14;100859.41;6162224;23;45469;-83
2023/06/07 03:04:38;;;;;;;;;20.33;19.33;;;;;18.91;67.77;100866.72;6186402;23;45402;-83
2023/06/07 03:07:05;;;;;;;;;22.67;20.00;;;;;18.90;65.80;100865.81;6189192;22;45298;-83
2023/06/07 03:09:31;;;;;;;;;25.33;20.67;;;;;18.81;66.04;100866.00;6164902;23;45358;-83
2023/06/07 03:11:56;;;;;;;;;16.33;16.33;;;;;18.82;65.55;100865.06;6187933;22;45272;-83
2023/06/07 03:14:23;;;;;;;;;25.00;22.67;;;;;18.85;66.21;100862.34;6189382;22;45112;-84
2023/06/07 03:16:48;;;;;;;;;21.33;20.00;;;;;18.76;66.58;100865.16;6166286;23;45357;-84
2023/06/07 03:19:14;;;;;;;;;22.67;18.33;;;;;18.71;66.72;100857.16;6164291;23;47098;-83
2023/06/07 03:21:44;;;;;;;;;21.67;20.00;;;;;18.72;67.40;100868.81;6163491;23;45432;-84
2023/06/07 03:24:11;;;;;;;;;21.00;19.00;;;;;18.70;68.75;100870.66;6164006;23;45459;-84
2023/06/07 03:26:37;;;;;;;;;27.33;20.67;;;;;18.61;68.40;100876.22;6166202;23;45545;-83
2023/06/07 03:29:03;;;;;;;;;21.67;19.67;;;;;18.54;67.69;100857.47;6241022;22;45958;-84
2023/06/07 03:31:29;;;;;;;;;23.00;20.00;;;;;18.55;67.12;100870.00;6257026;22;44680;-84
2023/06/07 03:33:55;;;;;;;;;22.33;22.00;;;;;18.52;67.51;100851.22;6252715;22;45494;-83
2023/06/07 03:36:21;;;;;;;;;22.67;21.33;;;;;18.55;67.47;100859.22;6279069;22;44834;-83
2023/06/07 03:38:47;;;;;;;;;27.00;20.67;;;;;18.54;67.59;100848.47;6254037;22;46874;-84
2023/06/07 03:41:12;;;;;;;;;28.00;25.33;;;;;18.56;68.04;100855.63;6279809;22;45493;-83
2023/06/07 03:43:38;;;;;;;;;22.33;21.67;;;;;18.50;67.57;100858.44;6253264;22;45397;-84
2023/06/07 03:46:06;;;;;;;;;23.00;22.00;;;;;18.62;67.37;100867.19;6256319;22;44845;-84
2023/06/07 03:48:32;;;;;;;;;22.33;20.00;;;;;18.46;67.46;100848.63;6254993;22;47119;-84
2023/06/07 03:50:57;;;;;;;;;30.00;22.00;;;;;18.48;67.68;100857.56;6256513;22;45381;-84
2023/06/07 03:53:22;;;;;;;;;23.33;19.00;;;;;18.46;68.12;100861.19;6255438;22;45434;-83
2023/06/07 03:55:48;;;;;;;;;26.67;23.33;;;;;18.42;68.42;100865.75;6257941;22;45603;-83
2023/06/07 03:58:18;;;;;;;;;31.67;27.00;;;;;18.37;68.49;100855.03;6259141;22;45253;-83
2023/06/07 04:00:45;;;;;;;;;21.33;21.00;;;;;18.42;68.16;100851.38;6283127;22;45306;-83
2023/06/07 04:03:11;;;;;;;;;22.33;18.33;;;;;18.44;68.36;100866.63;6282414;22;45350;-83
2023/06/07 04:05:39;;;;;;;;;27.67;22.67;;;;;18.55;67.52;100861.91;6256934;22;44912;-83
2023/06/07 04:08:06;;;;;;;;;21.00;21.00;;;;;18.53;67.57;100863.75;6257787;22;46745;-83
2023/06/07 04:10:32;;;;;;;;;27.00;25.67;;;;;18.52;68.12;100870.06;6282520;22;45802;-83
2023/06/07 04:12:58;;;;;;;;;21.67;21.67;;;;;18.43;68.05;100872.91;6281640;22;45286;-84
2023/06/07 04:15:24;;;;;;;;;24.00;23.67;;;;;18.40;68.66;100878.34;6258188;22;45373;-83
2023/06/07 04:17:50;;;;;;;;;26.00;22.00;;;;;18.37;69.25;100871.19;6257745;22;45310;-83
2023/06/07 04:20:23;;;;;;;;;23.67;21.67;;;;;18.39;68.02;100879.25;6257469;22;44746;-84
2023/06/07 04:22:51;;;;;;;;;30.33;27.67;;;;;18.34;68.76;100870.34;6282489;22;45319;-83
2023/06/07 04:25:17;;;;;;;;;26.00;23.00;;;;;18.40;68.17;100875.66;6257386;22;45281;-83
2023/06/07 04:27:46;;;;;;;;;27.67;24.67;;;;;18.39;68.29;100880.13;6252915;22;46714;-83
2023/06/07 04:30:12;;;;;;;;;25.33;21.67;;;;;18.36;68.52;100879.28;6256191;22;45335;-83
2023/06/07 04:32:39;;;;;;;;;28.67;26.67;;;;;18.26;68.42;100869.56;6257542;22;45468;-84
2023/06/07 04:35:05;;;;;;;;;23.67;23.33;;;;;18.29;69.19;100883.88;6254452;22;45460;-84
2023/06/07 04:37:31;;;;;;;;;26.00;24.00;;;;;18.35;69.16;100882.91;6252058;22;45282;-83
2023/06/07 04:39:59;;;;;;;;;30.33;24.67;;;;;18.36;69.00;100881.97;6257617;22;45518;-83
2023/06/07 04:42:25;;;;;;;;;21.67;20.67;;;;;18.39;69.02;100884.63;6257588;22;45400;-84
2023/06/07 04:44:52;;;;;;;;;27.67;22.33;;;;;18.35;68.59;100873.00;6255610;22;45519;-84
2023/06/07 04:47:18;;;;;;;;;28.67;26.67;;;;;18.39;68.70;100879.25;6258317;22;46670;-83
2023/06/07 04:49:43;;;;;;;;;23.00;19.67;;;;;18.38;68.97;100886.44;6257454;22;45310;-83
2023/06/07 04:52:12;;;;;;;;;27.67;25.00;;;;;18.42;68.57;100889.97;6281182;22;45794;-84
2023/06/07 04:54:38;;;;;;;;;28.67;26.00;;;;;18.47;68.77;100893.47;6257459;22;45334;-84
2023/06/07 04:57:06;;;;;;;;;28.67;27.33;;;;;18.45;68.48;100886.34;6255234;22;48083;-83
2023/06/07 04:59:34;;;;;;;;;25.00;22.67;;;;;18.49;68.62;100891.66;6258321;22;44782;-82
2023/06/07 05:02:01;;;;;;;;;25.00;23.67;;;;;18.58;67.86;100890.59;6283675;22;44685;-82
2023/06/07 05:04:27;;;;;;;;;24.67;20.00;;;;;18.57;68.17;100894.22;6257996;22;45266;-83
2023/06/07 05:06:58;;;;;;;;;34.00;31.00;;;;;18.56;69.14;100893.34;6257241;22;45288;-83
2023/06/07 05:09:24;;;;;;;;;27.00;23.33;;;;;18.49;69.01;100897.03;6280276;22;45393;-83
2023/06/07 05:11:49;;;;;;;;;33.67;29.33;;;;;18.42;68.18;100894.47;6257506;22;45274;-83
2023/06/07 05:14:18;;;;;;;;;31.00;29.33;;;;;18.50;68.39;100898.84;6257027;22;45320;-83
2023/06/07 05:16:44;;;;;;;;;26.33;23.67;;;;;18.41;69.11;100896.28;6255368;22;47656;-86
2023/06/07 05:19:10;;;;;;;;;31.33;27.00;;;;;18.49;68.98;100890.78;6279539;22;45405;-83
2023/06/07 05:21:36;;;;;;;;;25.00;21.33;;;;;18.62;69.19;100891.44;6255413;22;44787;-83
2023/06/07 05:24:02;;;;;;;;;29.67;25.33;;;;;18.78;69.04;100898.34;6279414;22;45467;-83
2023/06/07 05:26:28;;;;;;;;;33.33;30.33;;;;;18.81;68.29;100892.06;6254289;22;47308;-84
2023/06/07 05:30:06;;;;;;;;;40.00;30.00;;;;;18.86;68.87;100895.56;6232660;22;44823;-84
2023/06/07 05:32:37;;;;;;;;;33.00;28.67;;;;;18.78;68.80;100888.47;6225244;22;45587;-84
2023/06/07 05:35:04;;;;;;;;;21.67;21.67;;;;;18.74;69.02;100886.75;6226905;22;44722;-83
2023/06/07 05:37:30;;;;;;;;;32.33;28.00;;;;;18.78;68.68;100877.69;6225912;22;45217;-83
2023/06/07 05:39:56;;;;;;;;;37.33;31.67;;;;;18.90;67.99;100882.00;6228515;22;45235;-83
2023/06/07 05:42:22;;;;;;;;;34.67;30.33;;;;;18.99;67.47;100891.72;6224614;22;45318;-83
2023/06/07 05:44:51;;;;;;;;;37.33;31.67;;;;;19.04;67.25;100886.25;6227078;22;45316;-83
2023/06/07 05:47:20;;;;;;;;;30.67;28.67;;;;;19.13;67.78;100889.66;6226710;22;45507;-83
2023/06/07 05:49:49;;;;;;;;;33.67;32.00;;;;;19.19;67.03;100894.06;6223740;22;45333;-83
2023/06/07 05:52:14;;;;;;;;;41.00;34.00;;;;;19.01;66.94;100889.00;6225553;22;44836;-84
2023/06/07 05:54:47;;;;;;;;;32.33;31.33;;;;;19.04;67.09;100894.34;6226887;22;45472;-82
2023/06/07 05:57:22;;;;;;;;;37.00;33.00;;;;;19.06;67.84;100887.13;6227645;22;45421;-82
2023/06/07 05:59:50;;;;;;;;;34.33;33.33;;;;;18.90;66.81;100884.69;6199431;22;45335;-83
2023/06/07 06:02:16;;;;;;;;;34.33;31.67;;;;;18.81;67.48;100898.34;6200143;22;45429;-82
2023/06/07 06:04:42;;;;;;;;;32.00;29.33;;;;;18.70;67.46;100890.38;6199588;22;45510;-83
2023/06/07 06:07:09;;;;;;;;;33.67;30.67;;;;;18.75;68.10;100895.72;6226537;22;46049;-82
2023/06/07 06:09:34;;;;;;;;;41.67;32.67;;;;;18.85;67.93;100897.38;6226238;22;45311;-84
2023/06/07 06:12:00;;;;;;;;;34.33;30.33;;;;;19.00;67.36;100904.28;6228299;22;45303;-83
2023/06/07 06:14:27;;;;;;;;;34.67;32.33;;;;;19.21;68.39;100897.63;6201650;22;45329;-83
2023/06/07 06:16:53;;;;;;;;;34.00;26.67;;;;;19.30;67.35;100900.13;6228620;22;46048;-82
2023/06/07 06:19:22;;;;;;;;;36.00;30.33;;;;;19.51;66.23;100898.81;6225001;22;45359;-82
2023/06/07 06:21:48;;;;;;;;;34.00;31.00;;;;;19.69;65.69;100908.34;6224224;22;45394;-82
2023/06/07 06:24:15;;;;;;;;;35.00;32.00;;;;;19.80;65.64;100891.94;6228170;22;45372;-81
2023/06/07 06:26:40;;;;;;;;;42.33;34.33;;;;;19.90;65.27;100898.03;6199880;22;47190;-83
2023/06/07 06:29:06;;;;;;;;;37.67;32.00;;;;;19.86;64.87;100904.44;6223050;22;45510;-82
2023/06/07 06:31:31;;;;;;;;;35.67;31.67;;;;;19.83;64.37;100908.06;6232435;22;45375;-83
2023/06/07 06:33:57;;;;;;;;;32.67;32.00;;;;;19.92;65.07;100913.28;6282085;22;45253;-81
2023/06/07 06:36:26;;;;;;;;;38.00;33.67;;;;;20.02;64.22;100902.25;6256370;22;45467;-81
2023/06/07 06:38:54;;;;;;;;;35.33;32.67;;;;;20.15;64.13;100904.66;6254267;22;45341;-81
2023/06/07 06:41:20;;;;;;;;;35.67;33.67;;;;;20.31;63.60;100915.09;6254141;22;45371;-81
2023/06/07 06:43:45;;;;;;;;;39.00;32.33;;;;;20.35;63.16;100911.41;6254916;22;45279;-81
2023/06/07 06:46:14;;;;;;;;;32.67;30.00;;;;;20.25;62.88;100908.03;6253828;22;47021;-82
2023/06/07 06:48:47;;;;;;;;;38.00;33.67;;;;;20.26;63.36;100914.31;6257359;22;45512;-81
2023/06/07 06:51:12;;;;;;;;;32.00;29.67;;;;;20.29;63.35;100907.03;6256007;22;45306;-81
2023/06/07 06:53:37;;;;;;;;;31.33;30.67;;;;;20.51;63.95;100907.41;6254912;22;45350;-82
2023/06/07 06:56:03;;;;;;;;;33.33;31.67;;;;;20.53;63.47;100916.38;6280873;22;47992;-81
2023/06/07 06:58:34;;;;;;;;;29.33;23.33;;;;;20.63;62.94;100908.06;6279763;22;45275;-82
2023/06/07 07:01:51;;;;;;;;;38.67;33.33;;;;;20.71;62.17;100906.94;6255366;22;45239;-81
2023/06/07 07:04:17;;;;;;;;;30.00;29.33;;;;;20.51;62.23;100898.41;6283840;22;45619;-82
2023/06/07 07:06:43;;;;;;;;;31.33;31.33;;;;;20.56;62.02;100893.78;6255493;22;46722;-82
2023/06/07 07:09:10;;;;;;;;;34.33;32.00;;;;;20.78;61.82;100907.66;6258075;22;45802;-83
2023/06/07 07:11:39;;;;;;;;;34.67;32.00;;;;;21.01;61.92;100906.22;6260474;22;44796;-81
2023/06/07 07:17:53;;;;;;;;;38.33;33.67;;;;;20.99;61.21;100919.75;6259079;22;45364;-82
2023/06/07 07:20:20;;;;;;;;;43.67;34.00;;;;;20.97;61.25;100913.50;6255861;22;45803;-83
2023/06/07 07:22:49;;;;;;;;;31.33;31.00;;;;;20.86;61.10;100911.06;6284948;22;44756;-83
2023/06/07 07:25:15;;;;;;;;;35.67;33.00;;;;;20.73;61.29;100913.19;6261210;22;45780;-82
2023/06/07 07:41:27;;;;;;;;;29.33;23.00;;;;;20.71;61.56;100882.63;5962169;23;45743;-72
2023/06/07 07:43:53;;;;;;;;;36.00;32.67;;;;;20.69;60.98;100860.16;6067538;23;45417;-73
2023/06/07 07:46:19;;;;;;;;;33.33;29.33;;;;;20.98;60.75;100908.03;6064858;23;45400;-74
2023/06/07 07:48:44;;;;;;;;;35.00;30.33;;;;;20.96;61.45;100901.78;6065268;23;45496;-73
2023/06/07 07:51:10;;;;;;;;;30.33;28.67;;;;;20.90;60.67;100893.84;6064599;23;45644;-74
2023/06/07 07:53:59;;;;;;;;;34.00;31.00;;;;;20.88;60.27;100875.88;6064776;23;45730;-73
2023/06/07 07:56:25;;;;;;;;;31.33;30.33;;;;;21.08;60.10;100913.22;5979391;23;45424;-74
2023/06/07 07:58:50;;;;;;;;;38.33;34.00;;;;;21.08;60.33;100899.69;5980327;23;45507;-73
2023/06/07 08:01:18;;;;;;;;;28.00;25.67;;;;;21.25;60.28;100905.53;5979043;23;46235;-71
2023/06/07 08:03:43;;;;;;;;;35.00;33.00;;;;;21.25;59.76;100905.53;5998926;23;45475;-72
2023/06/07 08:06:09;;;;;;;;;39.00;32.00;;;;;21.31;59.79;100905.38;6034141;23;45440;-73
2023/06/07 08:08:34;;;;;;;;;31.67;30.00;;;;;21.35;59.61;100898.94;6064983;23;45527;-72
2023/06/07 08:11:00;;;;;;;;;38.00;30.67;;;;;21.44;59.63;100914.06;6093957;23;45943;-73
2023/06/07 08:13:29;;;;;;;;;33.33;29.33;;;;;21.49;59.61;100894.97;6070842;23;45303;-75
2023/06/07 08:15:55;;;;;;;;;27.33;25.67;;;;;21.76;59.32;100910.41;6072139;23;45490;-73
2023/06/07 08:18:23;;;;;;;;;30.00;27.33;;;;;21.92;59.03;100901.84;6094109;23;45464;-74
2023/06/07 08:20:53;;;;;;;;;31.67;30.00;;;;;22.01;58.74;100906.09;6097166;23;48052;-73
2023/06/07 08:23:23;;;;;;;;;30.33;30.33;;;;;22.02;58.71;100914.16;6101467;23;45710;-73
2023/06/07 08:25:49;;;;;;;;;29.33;27.33;;;;;22.04;58.81;100917.72;6095814;23;45486;-72
2023/06/07 08:28:15;;;;;;;;;27.33;26.67;;;;;22.10;58.29;100906.69;6070328;23;45271;-72
2023/06/07 08:30:47;;;;;;;;;33.00;29.00;;;;;22.17;58.61;100908.25;6095605;23;47349;-73
2023/06/07 08:33:12;;;;;;;;;32.33;30.00;;;;;22.22;58.35;100920.75;6152014;22;45464;-73
2023/06/07 08:35:39;;;;;;;;;27.67;26.67;;;;;22.34;58.21;100910.47;6245757;22;45405;-73
2023/06/07 08:38:05;;;;;;;;;29.67;28.00;;;;;22.41;58.07;100905.75;6220218;22;45256;-72
2023/06/07 08:40:36;;;;;;;;;32.00;29.67;;;;;22.57;57.95;100912.44;6246439;22;45288;-73
2023/06/07 08:43:11;;;;;;;;;30.67;27.67;;;;;22.55;57.49;100906.16;6246542;22;45377;-73
2023/06/07 08:45:36;;;;;;;;;28.33;28.00;;;;;22.51;57.41;100907.22;6247998;22;45345;-72
2023/06/07 08:48:06;;;;;;;;;29.33;27.33;;;;;22.56;57.11;100918.81;6248402;22;45425;-73
2023/06/07 08:50:37;;;;;;;;;24.00;24.00;;;;;22.56;57.13;100913.38;6221022;22;45334;-73
2023/06/07 08:53:13;;;;;;;;;18.00;15.33;;;;;22.75;57.54;100904.63;6247555;22;45425;-74
2023/06/07 08:55:39;;;;;;;;;30.00;27.33;;;;;22.96;56.68;100903.88;6248215;22;45475;-74
2023/06/07 08:58:08;;;;;;;;;35.67;29.00;;;;;23.19;56.47;100910.38;6249444;22;45644;-74
2023/06/07 09:00:37;;;;;;;;;31.00;29.67;;;;;23.21;56.13;100908.50;6248015;22;45429;-74
2023/06/07 09:03:03;;;;;;;;;30.67;29.33;;;;;23.28;55.68;100904.59;6245808;22;45407;-73
2023/06/07 09:05:29;;;;;;;;;28.00;27.33;;;;;23.34;55.70;100901.66;6245159;22;45505;-73
2023/06/07 09:07:56;;;;;;;;;23.33;20.33;;;;;23.37;55.64;100887.13;6194297;22;45379;-74
2023/06/07 09:10:24;;;;;;;;;23.00;21.00;;;;;23.49;55.77;100891.19;6246615;22;45338;-73
2023/06/07 09:12:52;;;;;;;;;26.33;26.00;;;;;23.70;55.37;100894.94;6248225;22;45345;-74
2023/06/07 09:15:21;;;;;;;;;32.67;29.00;;;;;23.79;54.86;100888.28;6247980;22;45473;-72
2023/06/07 09:18:00;;;;;;;;;26.33;24.67;;;;;23.87;54.87;100897.03;6245399;22;45404;-73
2023/06/07 09:23:51;;;;;;;;;28.00;27.00;;;;;23.89;54.45;100895.13;6253973;22;45623;-73
2023/06/07 09:26:17;;;;;;;;;28.00;25.67;;;;;23.92;54.12;100889.59;6248384;22;45443;-73
2023/06/07 09:28:47;;;;;;;;;26.67;23.67;;;;;23.94;54.24;100888.56;6221402;22;45740;-73
2023/06/07 09:31:28;;;;;;;;;21.00;21.00;;;;;24.08;53.58;100881.72;6245292;22;46800;-73
2023/06/07 09:33:56;;;;;;;;;25.00;24.67;;;;;24.19;53.54;100874.00;6245280;22;45389;-73
2023/06/07 09:36:25;;;;;;;;;23.00;23.00;;;;;24.30;53.01;100879.03;6247547;22;45358;-74
2023/06/07 09:38:57;;;;;;;;;27.33;25.67;;;;;24.45;52.29;100875.66;6248942;22;45440;-74
2023/06/07 09:41:29;;;;;;;;;23.00;22.67;;;;;24.47;51.43;100879.19;6248730;22;45401;-73
2023/06/07 09:43:54;;;;;;;;;22.00;21.33;;;;;24.38;52.09;100863.28;6247797;22;45517;-72
2023/06/07 09:46:21;;;;;;;;;23.00;23.00;;;;;24.47;51.12;100870.16;6245998;22;45415;-72
2023/06/07 09:48:55;;;;;;;;;18.33;18.00;;;;;24.62;51.25;100885.88;6245657;22;45593;-73
2023/06/07 09:51:21;;;;;;;;;17.00;16.67;;;;;24.48;50.50;100870.09;6248177;22;45264;-74
2023/06/07 09:53:53;;;;;;;;;27.33;24.00;;;;;24.60;50.48;100876.00;6248207;22;45615;-75
2023/06/07 09:56:21;;;;;;;;;23.33;22.00;;;;;24.65;50.86;100868.53;6249133;22;45450;-73
2023/06/07 09:58:56;;;;;;;;;23.67;22.67;;;;;24.77;50.91;100862.56;6248526;22;45227;-72
2023/06/07 10:01:34;;;;;;;;;26.67;23.67;;;;;24.92;50.36;100859.16;6248655;22;46177;-72
2023/06/07 10:04:02;;;;;;;;;20.67;20.00;;;;;24.95;50.36;100850.88;6248873;22;45393;-75
2023/06/07 10:06:34;;;;;;;;;21.00;21.00;;;;;25.16;50.89;100853.59;6246921;22;44788;-75
2023/06/07 10:09:04;;;;;;;;;24.00;20.33;;;;;25.26;49.63;100851.38;6248262;22;45404;-75
2023/06/07 10:11:34;;;;;;;;;25.00;23.67;;;;;25.15;49.12;100854.56;6246991;22;45161;-74
2023/06/07 10:14:06;;;;;;;;;26.33;23.67;;;;;25.19;48.52;100837.16;6249024;22;45359;-75
2023/06/07 10:16:36;;;;;;;;;26.00;23.00;;;;;25.16;48.78;100843.59;6249073;22;45569;-76
2023/06/07 10:19:36;;;;;;;;;26.67;25.00;;;;;25.21;48.84;100859.78;6249198;22;45850;-75
2023/06/07 10:22:11;;;;;;;;;24.00;20.00;;;;;25.18;48.44;100851.69;6227014;22;46273;-76
2023/06/07 10:24:46;;;;;;;;;24.67;24.67;;;;;25.23;48.58;100841.53;6271548;22;45552;-75
2023/06/07 10:27:17;;;;;;;;;24.00;24.00;;;;;25.31;48.81;100844.78;6245379;22;46037;-76
2023/06/07 10:30:01;;;;;;;;;25.67;24.67;;;;;25.44;48.86;100836.03;6244446;22;45383;-76
2023/06/07 10:32:36;;;;;;;;;23.00;23.00;;;;;25.49;48.83;100844.88;6266988;22;45502;-75
2023/06/07 10:35:03;;;;;;;;;24.33;23.00;;;;;25.52;48.52;100836.56;6248227;22;45460;-75
2023/06/07 10:37:32;;;;;;;;;23.67;23.67;;;;;25.52;48.49;100844.75;6270031;22;45497;-76
2023/06/07 10:39:58;;;;;;;;;25.33;25.33;;;;;25.53;48.66;100838.31;6269284;22;45589;-76
2023/06/07 10:42:25;;;;;;;;;24.33;24.33;;;;;25.61;48.05;100833.44;6245443;22;45321;-75
2023/06/07 10:44:50;;;;;;;;;26.67;26.67;;;;;25.56;48.51;100832.75;6243277;22;45398;-77
2023/06/07 10:47:22;;;;;;;;;16.67;16.67;;;;;25.64;48.01;100827.81;6245846;22;45385;-74
2023/06/07 10:49:54;;;;;;;;;21.67;20.00;;;;;25.69;47.36;100819.41;6247429;22;45361;-74
2023/06/07 10:52:20;;;;;;;;;17.00;16.00;;;;;25.74;47.62;100826.44;6243735;22;46347;-75
2023/06/07 10:54:47;;;;;;;;;24.00;22.33;;;;;25.84;46.97;100823.28;6244838;22;45365;-75
2023/06/07 10:57:30;;;;;;;;;21.33;21.33;;;;;25.83;46.27;100829.66;6266978;22;45764;-75
2023/06/07 11:00:33;;;;;;;;;21.67;21.00;;;;;25.92;46.50;100819.25;6247297;22;45318;-75
2023/06/07 11:03:09;;;;;;;;;24.67;23.67;;;;;26.01;46.81;100822.47;6273430;22;46770;-78
2023/06/07 11:05:53;;;;;;;;;23.67;21.67;;;;;26.06;46.55;100814.97;6247970;22;45378;-76
2023/06/07 11:08:36;;;;;;;;;21.33;21.33;;;;;26.07;46.83;100817.59;6255506;22;45439;-75
2023/06/07 11:11:22;;;;;;;;;23.33;21.67;;;;;26.04;46.98;100808.72;6245331;22;45486;-75
2023/06/07 11:13:57;;;;;;;;;22.33;22.00;;;;;26.28;46.94;100807.47;6251275;22;47874;-77
2023/06/07 11:16:25;;;;;;;;;21.33;21.33;;;;;26.36;45.58;100809.81;6244905;22;45449;-76
2023/06/07 11:22:17;;;;;;;;;25.00;23.00;;;;;26.58;45.87;100797.81;6256368;22;45398;-76
2023/06/07 11:25:11;;;;;;;;;18.00;18.00;;;;;26.64;46.06;100798.41;6255160;22;45651;-77
2023/06/07 11:27:55;;;;;;;;;22.33;22.00;;;;;26.68;45.95;100793.66;6248753;22;45421;-75
2023/06/07 11:30:22;;;;;;;;;22.33;21.00;;;;;26.65;45.06;100800.16;6248302;22;45267;-75
2023/06/07 11:32:57;;;;;;;;;25.00;24.00;;;;;26.71;44.49;100788.06;6245098;22;45450;-73
2023/06/07 11:35:43;;;;;;;;;21.67;20.67;;;;;26.72;44.21;100785.25;6248075;22;47539;-76
2023/06/07 11:38:10;;;;;;;;;20.33;20.33;;;;;26.77;42.48;100781.41;6249639;22;45418;-76
2023/06/07 11:40:35;;;;;;;;;20.67;20.67;;;;;26.85;43.29;100790.06;6251199;22;45510;-76
2023/06/07 11:43:40;;;;;;;;;21.67;20.00;;;;;26.98;42.50;100782.09;6272556;22;45493;-75
2023/06/07 11:46:15;;;;;;;;;22.33;20.33;;;;;26.95;42.16;100764.03;6221260;22;46101;-75